createdAt,value
2022-12-05T00:04:53.046Z,20.42
2022-12-05T00:09:54.498Z,18.17
2022-12-05T00:14:56.089Z,18.08
2022-12-05T00:19:57.471Z,18.48
2022-12-05T00:24:58.857Z,19.98
2022-12-05T00:30:00.784Z,18.80
2022-12-05T00:35:02.098Z,19.30
2022-12-05T00:40:03.812Z,18.38
2022-12-05T00:45:05.719Z,19.17
2022-12-05T00:50:07.945Z,17.77
2022-12-05T00:55:09.651Z,21.45
2022-12-05T01:00:11.475Z,19.48
2022-12-05T01:05:12.797Z,22.17
2022-12-05T01:10:14.200Z,20.27
2022-12-05T01:15:15.511Z,18.95
2022-12-05T01:20:17.036Z,19.92
2022-12-05T01:25:18.386Z,18.38
2022-12-05T01:30:21.185Z,18.45
2022-12-05T01:35:22.623Z,21.13
2022-12-05T01:40:24.220Z,18.80
2022-12-05T01:45:39.258Z,18.35
2022-12-05T01:50:41.116Z,18.20
2022-12-05T01:55:42.719Z,20.58
2022-12-05T02:00:44.769Z,20.95
2022-12-05T02:05:49.968Z,22.75
2022-12-05T02:10:54.365Z,20.67
2022-12-05T02:16:27.614Z,19.50
2022-12-05T02:21:40.735Z,19.00
2022-12-05T02:26:55.740Z,20.98
2022-12-05T02:32:24.524Z,19.58
2022-12-05T02:37:39.009Z,22.27
2022-12-05T02:42:51.495Z,19.67
2022-12-05T02:47:54.357Z,19.42
2022-12-05T02:53:00.441Z,21.17
2022-12-05T02:58:06.223Z,19.55
2022-12-05T03:03:14.409Z,19.52
2022-12-05T03:08:21.394Z,21.42
2022-12-05T03:13:39.406Z,18.65
2022-12-05T03:18:58.417Z,22.08
2022-12-05T03:24:19.642Z,22.90
2022-12-05T03:29:36.363Z,22.08
2022-12-05T03:34:49.571Z,20.33
2022-12-05T03:40:03.734Z,23.40
2022-12-05T03:45:12.579Z,20.73
2022-12-05T03:50:35.002Z,21.42
2022-12-05T03:55:40.109Z,22.67
2022-12-05T04:00:46.485Z,20.77
2022-12-05T04:05:52.891Z,19.98
2022-12-05T04:11:00.873Z,23.52
2022-12-05T04:16:28.965Z,19.77
2022-12-05T04:21:38.672Z,22.08
2022-12-05T04:26:46.699Z,23.20
2022-12-05T04:31:52.795Z,25.30
2022-12-05T04:36:59.850Z,25.35
2022-12-05T04:42:06.313Z,23.63
2022-12-05T04:47:10.758Z,25.55
2022-12-05T04:52:13.155Z,25.35
2022-12-05T04:57:22.045Z,28.00
2022-12-05T05:02:43.521Z,24.67
2022-12-05T05:07:47.838Z,19.27
2022-12-05T05:12:49.165Z,21.77
2022-12-05T05:17:50.672Z,23.35
2022-12-05T05:22:56.911Z,23.65
2022-12-05T05:27:58.296Z,22.50
2022-12-05T05:33:00.397Z,21.27
2022-12-05T05:38:01.728Z,19.90
2022-12-05T05:43:03.194Z,24.25
2022-12-05T05:48:04.855Z,21.25
2022-12-05T05:53:06.142Z,20.65
2022-12-05T05:58:08.703Z,24.45
2022-12-05T06:03:10.289Z,20.48
2022-12-05T06:08:11.826Z,21.58
2022-12-05T06:13:13.370Z,24.60
2022-12-05T06:18:14.851Z,22.83
2022-12-05T06:23:16.346Z,23.20
2022-12-05T06:28:19.239Z,22.45
2022-12-05T06:33:21.031Z,21.70
2022-12-05T06:38:22.357Z,24.42
2022-12-05T06:43:23.883Z,23.25
2022-12-05T06:48:25.306Z,21.73
2022-12-05T06:53:28.573Z,19.35
2022-12-05T06:58:31.045Z,22.90
2022-12-05T07:03:32.403Z,22.88
2022-12-05T07:08:34.389Z,21.95
2022-12-05T07:13:35.749Z,19.83
2022-12-05T07:18:37.131Z,25.15
2022-12-05T07:23:38.614Z,24.45
2022-12-05T07:28:39.965Z,24.13
2022-12-05T07:33:41.773Z,24.75
2022-12-05T07:38:44.067Z,20.42
2022-12-05T07:43:45.478Z,20.52
2022-12-05T07:48:50.473Z,22.27
2022-12-05T07:58:54.006Z,22.33
2022-12-05T08:03:58.148Z,29.30
2022-12-05T08:08:59.474Z,26.57
2022-12-05T08:14:00.883Z,23.55
2022-12-05T08:19:08.323Z,21.38
2022-12-05T08:24:10.551Z,22.55
2022-12-05T08:29:14.413Z,23.52
2022-12-05T08:34:17.616Z,21.75
2022-12-05T08:39:19.723Z,20.60
2022-12-05T08:44:21.079Z,20.70
2022-12-05T08:49:22.469Z,20.33
2022-12-05T08:54:23.825Z,21.42
2022-12-05T08:59:25.262Z,19.90
2022-12-05T09:04:26.960Z,18.88
2022-12-05T09:09:28.340Z,23.77
2022-12-05T09:14:32.862Z,25.33
2022-12-05T09:19:34.267Z,26.17
2022-12-05T09:24:35.668Z,23.50
2022-12-05T09:29:37.385Z,23.02
2022-12-05T09:34:39.247Z,21.80
2022-12-05T09:39:40.704Z,25.17
2022-12-05T09:45:17.452Z,19.52
2022-12-05T09:50:28.346Z,25.63
2022-12-05T09:55:38.224Z,25.60
2022-12-05T10:00:40.034Z,26.23
2022-12-05T10:06:00.028Z,28.20
2022-12-05T10:11:06.673Z,26.88
2022-12-05T10:16:17.159Z,28.75
2022-12-05T10:21:24.976Z,23.05
2022-12-05T10:26:32.554Z,22.73
2022-12-05T10:31:36.987Z,27.23
2022-12-05T10:36:38.356Z,24.17
2022-12-05T10:41:39.723Z,26.05
2022-12-05T10:46:41.372Z,24.75
2022-12-05T10:51:43.112Z,22.70
2022-12-05T10:56:52.797Z,19.50
2022-12-05T11:02:00.906Z,22.23
2022-12-05T11:07:05.380Z,16.67
2022-12-05T11:12:17.684Z,18.35
2022-12-05T11:17:40.076Z,20.38
2022-12-05T11:22:45.762Z,19.50
2022-12-05T11:27:49.887Z,25.48
2022-12-05T11:32:51.690Z,20.70
2022-12-05T11:38:00.161Z,19.42
2022-12-05T11:43:14.778Z,16.88
2022-12-05T11:48:29.702Z,14.18
2022-12-05T11:53:52.039Z,18.45
2022-12-05T11:58:58.913Z,11.73
2022-12-05T12:04:00.275Z,14.20
2022-12-05T12:09:23.235Z,12.18
2022-12-05T12:14:47.258Z,13.35
2022-12-05T12:20:07.463Z,13.48
2022-12-05T12:25:30.669Z,15.30
2022-12-05T12:30:50.755Z,14.25
2022-12-05T12:36:01.399Z,14.27
2022-12-05T12:41:22.398Z,15.50
2022-12-05T12:46:43.379Z,12.88
2022-12-05T12:51:52.699Z,14.20
2022-12-05T12:57:26.243Z,10.88
2022-12-05T13:02:47.299Z,13.73
2022-12-05T13:07:53.925Z,14.52
2022-12-05T13:12:57.788Z,12.57
2022-12-05T13:18:01.880Z,14.15
2022-12-05T13:23:07.853Z,14.03
2022-12-05T13:28:47.516Z,18.10
2022-12-05T13:33:50.640Z,15.30
2022-12-05T13:39:20.436Z,14.82
2022-12-05T13:44:33.181Z,17.13
2022-12-05T13:49:46.325Z,17.33
2022-12-05T13:55:03.891Z,19.50
2022-12-05T14:00:08.108Z,17.67
2022-12-05T14:05:17.350Z,19.03
2022-12-05T14:10:27.826Z,21.42
2022-12-05T14:15:32.288Z,17.75
2022-12-05T14:20:49.305Z,20.08
2022-12-05T14:26:15.533Z,21.17
2022-12-05T14:31:25.817Z,18.73
2022-12-05T14:36:30.810Z,18.08
2022-12-05T14:46:36.999Z,16.80
2022-12-05T14:51:41.360Z,19.05
2022-12-05T14:56:46.003Z,16.58
2022-12-05T15:01:52.032Z,17.73
2022-12-05T15:07:02.758Z,18.02
2022-12-05T15:12:09.796Z,20.15
2022-12-05T15:17:17.143Z,17.42
2022-12-05T15:22:23.093Z,15.00
2022-12-05T15:27:24.597Z,13.48
2022-12-05T15:32:27.606Z,13.23
2022-12-05T15:38:23.846Z,13.82
2022-12-05T15:43:30.076Z,13.18
2022-12-05T15:48:31.426Z,10.23
2022-12-05T15:53:47.372Z,13.20
2022-12-05T15:58:59.443Z,12.30
2022-12-05T16:04:45.299Z,11.90
2022-12-05T16:09:47.298Z,14.55
2022-12-05T16:15:01.167Z,16.70
2022-12-05T16:20:21.876Z,16.13
2022-12-05T16:25:35.173Z,18.35
2022-12-05T16:30:37.438Z,19.20
2022-12-05T16:35:42.076Z,22.58
2022-12-05T16:40:49.575Z,22.88
2022-12-05T16:45:53.209Z,21.10
2022-12-05T16:51:13.157Z,19.48
2022-12-05T16:56:19.783Z,21.65
2022-12-05T17:01:23.962Z,19.30
2022-12-05T17:06:26.404Z,24.40
2022-12-05T17:11:34.023Z,21.17
2022-12-05T17:16:35.461Z,21.17
2022-12-05T17:21:37.980Z,25.45
2022-12-05T17:26:39.356Z,21.60
2022-12-05T17:31:40.937Z,18.45
2022-12-05T17:36:45.890Z,20.58
2022-12-05T17:46:49.307Z,19.45
2022-12-05T17:52:20.496Z,17.67
2022-12-05T17:57:15.111Z,19.50
2022-12-05T18:02:18.797Z,18.80
2022-12-05T18:07:20.148Z,17.30
2022-12-05T18:12:21.828Z,20.08
2022-12-05T18:17:24.775Z,16.15
2022-12-05T18:22:27.413Z,16.20
2022-12-05T18:27:30.363Z,16.35
2022-12-05T18:32:31.848Z,14.30
2022-12-05T18:37:36.416Z,15.27
2022-12-05T18:42:37.835Z,13.38
2022-12-05T18:47:39.215Z,12.93
2022-12-05T18:52:40.610Z,13.23
2022-12-05T18:57:43.015Z,13.60
2022-12-05T19:02:44.508Z,9.88
2022-12-05T19:07:46.446Z,9.43
2022-12-05T19:12:47.822Z,11.00
2022-12-05T19:17:49.158Z,9.98
2022-12-05T19:22:54.112Z,7.97
2022-12-05T19:27:57.702Z,6.82
2022-12-05T19:32:59.087Z,7.32
2022-12-05T19:38:00.405Z,6.60
2022-12-05T19:43:03.460Z,7.72
2022-12-05T19:48:05.050Z,6.30
2022-12-05T19:53:06.369Z,6.30
2022-12-05T19:58:07.683Z,40.47
2022-12-05T20:03:12.099Z,8.15
2022-12-05T20:08:13.847Z,12.77
2022-12-05T20:13:38.507Z,4.63
2022-12-05T20:18:37.736Z,5.47
2022-12-05T20:23:39.298Z,4.68
2022-12-05T20:28:41.487Z,5.47
2022-12-05T20:33:43.661Z,4.50
2022-12-05T20:38:45.621Z,5.72
2022-12-05T20:43:48.763Z,5.18
2022-12-05T20:48:51.384Z,9.75
2022-12-05T20:53:53.051Z,22.85
2022-12-05T20:58:57.513Z,11.82
2022-12-05T21:03:59.146Z,5.78
2022-12-05T21:09:01.407Z,5.45
2022-12-05T21:14:05.009Z,6.22
2022-12-05T21:19:06.476Z,7.95
2022-12-05T21:24:09.685Z,14.52
2022-12-05T21:29:11.054Z,9.13
2022-12-05T21:34:15.646Z,4.97
2022-12-05T21:39:17.160Z,6.38
2022-12-05T21:44:19.852Z,5.38
2022-12-05T21:49:21.159Z,6.03
2022-12-05T21:54:22.473Z,5.45
2022-12-05T21:59:23.859Z,5.68
2022-12-05T22:04:25.169Z,6.18
2022-12-05T22:09:26.446Z,21.73
2022-12-05T22:14:27.810Z,7.88
2022-12-05T22:19:29.196Z,6.10
2022-12-05T22:24:30.488Z,6.57
2022-12-05T22:29:31.810Z,6.43
2022-12-05T22:34:33.178Z,8.85
2022-12-05T22:39:34.516Z,7.85
2022-12-05T22:44:35.819Z,7.40
2022-12-05T22:49:37.126Z,6.43
2022-12-05T22:54:39.067Z,7.47
2022-12-05T22:59:40.401Z,6.78
2022-12-05T23:04:41.671Z,7.25
2022-12-05T23:09:45.475Z,6.18
2022-12-05T23:14:46.738Z,6.07
2022-12-05T23:19:48.121Z,8.23
2022-12-05T23:24:49.430Z,5.72
2022-12-05T23:29:50.830Z,6.15
2022-12-05T23:34:52.234Z,6.40
2022-12-05T23:39:53.565Z,7.68
2022-12-05T23:44:54.929Z,6.47
2022-12-05T23:49:56.391Z,6.32
2022-12-05T23:54:57.823Z,5.43
2022-12-05T23:59:59.643Z,5.43
